Time;durP1;ratioP1;P1;durP2;ratioP2;P2;SDS_P1;SDS_P2;PMS_P1;PMS_P2;Temp;Humidity;BMP_temperature;BMP_pressure;BME280_temperature;BME280_humidity;BME280_pressure;Samples;Min_cycle;Max_cycle;Signal;HPM_P1;HPM_P2
2022/05/06 00:00:01;;;;;;;48.75;19.65;;;;;;;7.38;100.00;102019.59;4975509;28;20049;-70
2022/05/06 00:02:27;;;;;;;41.28;19.05;;;;;;;7.36;100.00;102024.19;4994128;28;20042;-70
2022/05/06 00:04:52;;;;;;;50.40;19.47;;;;;;;7.34;100.00;102023.44;4974259;28;20026;-70
2022/05/06 00:07:18;;;;;;;43.27;18.40;;;;;;;7.30;100.00;102032.56;4957184;28;20038;-70
2022/05/06 00:09:44;;;;;;;43.97;20.02;;;;;;;7.21;100.00;102023.47;4982329;28;20031;-70
2022/05/06 00:12:12;;;;;;;43.92;20.23;;;;;;;7.18;100.00;102027.19;4991698;28;20128;-70
2022/05/06 00:14:38;;;;;;;47.20;20.63;;;;;;;7.16;100.00;102036.22;4988510;28;20026;-70
2022/05/06 00:17:05;;;;;;;48.97;20.95;;;;;;;7.11;100.00;102028.56;4991275;28;20034;-71
2022/05/06 00:19:31;;;;;;;48.83;20.33;;;;;;;7.05;100.00;102017.56;4974276;28;20098;-71
2022/05/06 00:21:56;;;;;;;52.27;20.87;;;;;;;7.04;100.00;102019.34;4993544;28;20582;-70
2022/05/06 00:24:21;;;;;;;55.90;23.03;;;;;;;7.02;100.00;102018.59;4966100;28;20278;-69
2022/05/06 00:26:47;;;;;;;57.10;22.47;;;;;;;7.09;100.00;102022.50;4975232;28;20041;-71
2022/05/06 00:29:13;;;;;;;57.28;24.02;;;;;;;7.05;100.00;102015.75;4991471;28;20062;-71
2022/05/06 00:31:38;;;;;;;48.10;21.77;;;;;;;7.09;100.00;102022.50;4973925;28;20069;-70
2022/05/06 00:34:06;;;;;;;60.38;23.52;;;;;;;7.11;100.00;102022.41;4974157;28;20089;-69
2022/05/06 00:36:32;;;;;;;56.85;23.33;;;;;;;7.10;100.00;102021.56;4993939;28;20035;-71
2022/05/06 00:38:57;;;;;;;53.10;22.37;;;;;;;7.04;100.00;102015.84;4990389;28;20112;-70
2022/05/06 00:41:23;;;;;;;61.22;25.90;;;;;;;7.01;100.00;102024.03;4991136;28;20122;-71
2022/05/06 00:43:49;;;;;;;57.73;24.93;;;;;;;7.08;100.00;102023.50;4990911;28;20419;-70
2022/05/06 00:46:15;;;;;;;56.67;22.93;;;;;;;7.12;100.00;102024.97;4956452;28;20035;-70
2022/05/06 00:48:44;;;;;;;59.65;23.33;;;;;;;7.08;100.00;102023.50;4975417;28;20037;-71
2022/05/06 00:51:11;;;;;;;75.65;30.17;;;;;;;7.07;100.00;102013.84;4956202;28;20039;-70
2022/05/06 00:53:38;;;;;;;51.50;22.75;;;;;;;7.05;100.00;102018.41;4990939;28;20339;-70
2022/05/06 00:56:07;;;;;;;63.13;24.52;;;;;;;6.96;100.00;102014.59;4990798;28;20286;-70
2022/05/06 00:58:33;;;;;;;63.10;25.48;;;;;;;7.00;100.00;102009.03;4971689;28;20041;-70
2022/05/06 01:00:58;;;;;;;62.73;25.10;;;;;;;7.01;100.00;102005.44;4989196;28;20041;-70
2022/05/06 01:03:24;;;;;;;60.90;25.93;;;;;;;6.92;100.00;102009.59;4957798;28;20030;-70
2022/05/06 01:05:52;;;;;;;75.53;29.97;;;;;;;6.91;100.00;101999.94;4974068;28;20499;-70
2022/05/06 01:08:19;;;;;;;64.57;25.83;;;;;;;6.85;100.00;101995.91;4956125;28;20034;-70
2022/05/06 01:10:44;;;;;;;71.57;27.80;;;;;;;6.91;100.00;102002.59;4981150;28;20046;-70
2022/05/06 01:13:10;;;;;;;67.13;26.50;;;;;;;6.85;100.00;102000.38;4955928;28;20418;-71
2022/05/06 01:15:38;;;;;;;63.15;27.20;;;;;;;6.82;100.00;102000.59;4978211;28;20031;-71
2022/05/06 01:18:19;;;;;;;75.35;27.05;;;;;;;6.74;100.00;102009.06;4965580;28;20488;-71
2022/05/06 01:20:48;;;;;;;69.63;27.13;;;;;;;6.71;100.00;102004.81;4972535;28;20452;-70
2022/05/06 01:23:14;;;;;;;72.72;25.63;;;;;;;6.71;100.00;102012.78;4967414;28;20065;-71
2022/05/06 01:25:39;;;;;;;83.80;30.77;;;;;;;6.81;100.00;102006.84;4975227;28;20104;-70
2022/05/06 01:28:06;;;;;;;81.37;29.40;;;;;;;6.86;100.00;102018.84;4964913;28;20060;-71
2022/05/06 01:30:38;;;;;;;68.45;28.73;;;;;;;6.75;100.00;102011.63;4991630;28;20034;-71
2022/05/06 01:33:08;;;;;;;78.00;30.05;;;;;;;6.70;100.00;102013.75;4987632;28;20029;-70
2022/05/06 01:35:39;;;;;;;76.78;30.77;;;;;;;6.65;100.00;102007.03;4986704;28;20411;-71
2022/05/06 01:38:05;;;;;;;64.70;26.38;;;;;;;6.57;100.00;102007.59;4988479;28;20532;-72
2022/05/06 01:40:42;;;;;;;66.85;29.13;;;;;;;6.52;100.00;102009.72;4970948;28;20029;-71
2022/05/06 01:43:13;;;;;;;77.25;28.65;;;;;;;6.53;100.00;102006.09;4967761;28;20034;-71
2022/05/06 01:45:43;;;;;;;67.15;28.52;;;;;;;6.58;100.00;102019.03;4978156;28;20116;-71
2022/05/06 01:48:11;;;;;;;59.75;27.48;;;;;;;6.50;100.00;102008.97;4964760;28;20511;-71
2022/05/06 01:50:39;;;;;;;60.08;27.30;;;;;;;6.48;100.00;102006.41;4986522;28;20483;-71
2022/05/06 01:53:07;;;;;;;64.70;27.65;;;;;;;6.45;100.00;102008.44;4961618;28;20038;-71
2022/05/06 01:55:33;;;;;;;78.40;28.70;;;;;;;6.43;100.00;102007.69;4992913;28;20029;-71
2022/05/06 01:58:04;;;;;;;73.43;29.08;;;;;;;6.45;100.00;102017.22;4987137;28;20420;-70
2022/05/06 02:00:35;;;;;;;74.25;31.55;;;;;;;6.49;100.00;102009.94;4956156;28;20037;-70
2022/05/06 02:03:05;;;;;;;57.97;25.02;;;;;;;6.50;100.00;102022.22;4976029;28;20034;-70
2022/05/06 02:05:36;;;;;;;65.43;27.27;;;;;;;6.50;100.00;102019.56;4968880;28;20042;-71
2022/05/06 02:08:02;;;;;;;76.53;31.70;;;;;;;6.54;100.00;102023.72;4988651;28;20034;-70
2022/05/06 02:10:31;;;;;;;91.43;31.42;;;;;;;6.65;100.00;102023.84;4966849;28;20492;-71
2022/05/06 02:13:00;;;;;;;90.13;33.38;;;;;;;6.70;100.00;102029.69;4983791;28;20038;-70
2022/05/06 02:15:49;;;;;;;72.07;27.92;;;;;;;6.73;100.00;102029.44;4980088;28;20038;-71
2022/05/06 02:18:33;;;;;;;86.93;32.17;;;;;;;6.78;100.00;102030.94;4992401;28;20049;-70
2022/05/06 02:21:17;;;;;;;77.57;32.03;;;;;;;6.87;100.00;102031.16;4987971;28;20049;-71
2022/05/06 02:23:53;;;;;;;87.10;34.20;;;;;;;6.89;100.00;102031.91;4987854;28;20519;-71
2022/05/06 02:26:35;;;;;;;96.13;36.45;;;;;;;6.91;100.00;102032.66;4964402;28;20039;-70
2022/05/06 02:29:05;;;;;;;90.20;33.08;;;;;;;6.84;100.00;102031.38;5006440;23;20123;-72
2022/05/06 02:34:17;;;;;;;74.53;30.48;;;;;;;6.80;100.00;102023.72;4981153;28;20034;-72
2022/05/06 02:36:47;;;;;;;90.28;32.95;;;;;;;6.87;100.00;102031.16;4980713;28;20018;-72
2022/05/06 02:39:18;;;;;;;101.28;33.90;;;;;;;6.84;100.00;102025.22;4992851;28;20109;-72
2022/05/06 02:41:44;;;;;;;115.82;37.38;;;;;;;6.82;100.00;102024.47;4980379;28;20035;-74
2022/05/06 02:44:10;;;;;;;94.80;33.08;;;;;;;6.83;100.00;102026.16;4988899;28;20089;-72
2022/05/06 02:46:41;;;;;;;131.52;42.53;;;;;;;6.96;100.00;102030.50;4989215;28;20031;-72
2022/05/06 02:49:06;;;;;;;126.90;38.73;;;;;;;7.03;100.00;102030.94;4993216;28;20038;-72
2022/05/06 02:51:32;;;;;;;132.77;40.03;;;;;;;7.07;100.00;102032.44;4991964;28;20479;-72
2022/05/06 02:53:57;;;;;;;112.47;41.60;;;;;;;7.14;100.00;102031.03;4992004;28;20529;-72
2022/05/06 02:56:29;;;;;;;112.28;39.33;;;;;;;7.14;100.00;102028.38;4986869;28;20041;-73
2022/05/06 02:58:59;;;;;;;114.88;40.88;;;;;;;7.16;100.00;102034.44;4991889;28;20041;-72
2022/05/06 03:01:28;;;;;;;140.98;44.60;;;;;;;7.25;100.00;102029.41;4993666;28;20050;-72
2022/05/06 03:03:56;;;;;;;122.43;41.80;;;;;;;7.35;100.00;102033.09;4992055;28;20471;-72
2022/05/06 03:06:21;;;;;;;119.87;40.13;;;;;;;7.40;100.00;102033.63;4992116;28;20038;-74
2022/05/06 03:08:49;;;;;;;112.20;37.38;;;;;;;7.42;100.00;102025.53;4991235;28;20057;-72
2022/05/06 03:11:18;;;;;;;111.53;41.05;;;;;;;7.39;100.00;102027.44;4991640;28;20034;-72
2022/05/06 03:13:51;;;;;;;121.57;40.10;;;;;;;7.39;100.00;102027.44;4968341;28;20507;-72
2022/05/06 03:16:20;;;;;;;105.97;37.58;;;;;;;7.40;100.00;102023.00;4992128;28;20442;-72
2022/05/06 03:18:45;;;;;;;120.97;39.97;;;;;;;7.41;100.00;102024.69;4993884;28;20148;-72
2022/05/06 03:21:11;;;;;;;121.97;41.37;;;;;;;7.47;100.00;102031.34;4998490;28;20633;-71
2022/05/06 03:23:36;;;;;;;109.47;38.23;;;;;;;7.43;100.00;102030.75;4990713;28;20479;-72
2022/05/06 03:26:02;;;;;;;112.13;36.58;;;;;;;7.44;100.00;102020.97;4990683;28;20480;-73
2022/05/06 03:28:27;;;;;;;116.63;39.77;;;;;;;7.44;100.00;102024.47;4991502;28;20022;-72
2022/05/06 03:30:53;;;;;;;111.15;39.40;;;;;;;7.42;100.00;102025.53;4990269;28;20089;-71
2022/05/06 03:33:30;;;;;;;104.40;38.70;;;;;;;7.39;100.00;102023.94;4990624;28;20394;-73
2022/05/06 03:35:59;;;;;;;103.57;36.13;;;;;;;7.40;100.00;102038.94;5006833;28;20033;-72
2022/05/06 03:38:27;;;;;;;109.15;39.45;;;;;;;7.36;100.00;102021.53;4993333;28;20022;-72
2022/05/06 03:40:56;;;;;;;99.75;36.20;;;;;;;7.36;100.00;102033.00;4993703;28;20022;-74
2022/05/06 03:43:23;;;;;;;102.70;37.45;;;;;;;7.30;100.00;102025.44;4990338;28;20050;-72
2022/05/06 03:45:50;;;;;;;97.95;35.60;;;;;;;7.26;100.00;102031.09;4980257;28;20030;-72
2022/05/06 03:48:16;;;;;;;91.97;33.05;;;;;;;7.21;100.00;102014.63;4989949;28;20018;-75
2022/05/06 03:53:37;;;;;;;92.80;34.20;;;;;;;7.08;100.00;102018.19;5013913;28;20034;-73
2022/05/06 03:56:06;;;;;;;78.28;30.17;;;;;;;7.03;100.00;102020.31;4990021;28;20492;-74
2022/05/06 03:58:37;;;;;;;82.25;29.88;;;;;;;7.01;100.00;102022.22;5005270;28;20052;-72
2022/05/06 04:01:09;;;;;;;85.22;32.22;;;;;;;6.98;100.00;102019.78;4989734;28;20112;-71
2022/05/06 04:03:40;;;;;;;99.97;32.40;;;;;;;6.98;100.00;102017.13;4987026;28;20038;-72
2022/05/06 04:06:06;;;;;;;95.00;33.10;;;;;;;7.00;100.00;102020.53;4989934;28;20039;-72
2022/05/06 04:08:32;;;;;;;86.25;32.40;;;;;;;7.07;100.00;102016.50;4989641;28;20474;-72
2022/05/06 04:10:59;;;;;;;;;;;;;;;7.14;100.00;102014.22;4989977;28;20038;-73
2022/05/06 04:13:25;;;;;;;;;;;;;;;7.24;100.00;102028.56;4993614;28;20459;-73
2022/05/06 04:15:50;;;;;;;;;;;;;;;7.30;100.00;102029.91;4990119;28;20000;-71
2022/05/06 04:18:18;;;;;;;86.57;31.25;;;;;;;7.39;100.00;102032.75;4990368;28;19910;-73
2022/05/06 04:23:34;;;;;;;86.97;32.33;;;;;;;7.57;100.00;102030.59;5012556;28;20069;-72
2022/05/06 04:26:10;;;;;;;88.10;35.13;;;;;;;7.69;100.00;102033.31;5005762;28;20030;-72
2022/05/06 04:28:40;;;;;;;80.23;32.23;;;;;;;7.79;100.00;102037.00;4970121;28;20036;-74
2022/05/06 04:31:07;;;;;;;93.13;31.67;;;;;;;7.93;100.00;102042.13;4989201;28;20030;-72
2022/05/06 04:33:40;;;;;;;87.45;34.72;;;;;;;8.08;100.00;102042.84;4993093;28;20056;-72
2022/05/06 04:36:09;;;;;;;88.35;32.83;;;;;;;8.09;100.00;102041.84;4989387;28;20038;-72
2022/05/06 04:38:36;;;;;;;80.55;32.40;;;;;;;8.18;100.00;102056.28;4989030;28;20085;-73
2022/05/06 04:41:03;;;;;;;98.68;34.13;;;;;;;8.24;100.00;102051.34;4989410;28;20038;-72
2022/05/06 04:43:32;;;;;;;90.90;32.88;;;;;;;8.36;100.00;102046.91;4989159;28;20030;-75
2022/05/06 04:45:58;;;;;;;;;;;;;;;8.52;100.00;102051.09;4989415;28;20026;-72
2022/05/06 04:48:26;;;;;;;100.13;34.00;;;;;;;8.45;100.00;102048.91;4989002;28;20004;-74
2022/05/06 04:50:52;;;;;;;83.93;32.05;;;;;;;8.57;100.00;102038.28;4979102;28;20057;-73
2022/05/06 04:53:18;;;;;;;75.72;30.52;;;;;;;8.68;100.00;102038.31;4983331;28;20372;-73
2022/05/06 04:55:48;;;;;;;69.53;29.98;;;;;;;8.76;100.00;102046.56;4990455;28;20030;-73
2022/05/06 04:58:17;;;;;;;71.10;28.55;;;;;;;8.90;100.00;102044.63;4982180;28;20491;-74
2022/05/06 05:00:44;;;;;;;67.95;26.73;;;;;;;9.06;100.00;102040.66;4975307;28;20037;-72
2022/05/06 05:03:10;;;;;;;74.35;29.88;;;;;;;9.13;100.00;102042.81;4989405;28;20499;-72
2022/05/06 05:05:36;;;;;;;79.53;29.83;;;;;;;9.22;100.00;102040.25;4990459;28;20037;-72
2022/05/06 05:08:04;;;;;;;66.40;27.90;;;;;;;9.34;100.00;102038.47;4989611;28;20038;-73
2022/05/06 05:10:31;;;;;;;60.95;27.05;;;;;;;9.50;100.00;102040.72;4971819;28;20026;-73
2022/05/06 05:12:56;;;;;;;60.63;28.57;;;;;;;9.88;100.00;102034.06;4987151;28;20035;-72
2022/05/06 05:15:25;;;;;;;56.53;23.30;;;;;;;10.57;100.00;102021.16;4988157;28;20026;-72
2022/05/06 05:17:51;;;;;;;57.08;26.38;;;;;;;10.78;100.00;102023.81;5007748;28;20060;-72
2022/05/06 05:20:17;;;;;;;55.60;24.13;;;;;;;10.50;100.00;102011.13;5003970;28;20053;-73
2022/05/06 05:22:44;;;;;;;54.88;24.27;;;;;;;10.31;100.00;102004.69;4991134;28;20470;-72
2022/05/06 05:25:13;;;;;;;61.05;26.70;;;;;;;10.09;100.00;102005.63;5002781;28;20080;-73
2022/05/06 05:27:39;;;;;;;53.65;24.52;;;;;;;9.99;100.00;101998.50;4991550;28;20035;-73
2022/05/06 05:30:10;;;;;;;58.10;25.70;;;;;;;10.04;100.00;102004.31;4984187;28;20050;-73
2022/05/06 05:32:37;;;;;;;55.35;23.95;;;;;;;10.06;100.00;102005.88;4996406;28;20029;-73
2022/05/06 05:35:05;;;;;;;60.22;25.52;;;;;;;10.19;100.00;102005.69;5007363;28;20018;-73
2022/05/06 05:37:34;;;;;;;70.60;26.10;;;;;;;10.19;100.00;102005.69;4994645;28;20056;-73
2022/05/06 05:40:02;;;;;;;47.28;22.90;;;;;;;10.09;100.00;102007.44;4986101;28;20015;-73
2022/05/06 05:42:30;;;;;;;69.32;25.83;;;;;;;9.86;100.00;102004.03;4970966;28;20081;-73
2022/05/06 05:50:42;;;;;;;55.47;25.48;;;;;;;10.17;100.00;102002.31;4983590;28;20054;-73
2022/05/06 05:53:10;;;;;;;54.38;24.92;;;;;;;10.08;100.00;102003.09;5003703;28;20038;-73
2022/05/06 05:55:36;;;;;;;61.25;25.85;;;;;;;9.93;100.00;101999.88;4987572;28;20065;-73
2022/05/06 05:58:06;;;;;;;58.63;25.60;;;;;;;9.70;100.00;102007.94;4987526;28;20034;-73
2022/05/06 06:00:33;;;;;;;62.35;25.88;;;;;;;9.73;100.00;102018.34;4987391;28;20109;-74
2022/05/06 06:03:01;;;;;;;55.00;24.23;;;;;;;9.87;100.00;102019.91;4999020;28;20096;-73
2022/05/06 06:05:28;;;;;;;57.22;23.67;;;;;;;9.98;100.00;102026.19;5023539;28;20048;-74
2022/05/06 06:07:54;;;;;;;53.90;24.60;;;;;;;10.29;100.00;102021.81;5006860;28;20479;-75
2022/05/06 06:10:21;;;;;;;53.20;23.92;;;;;;;10.35;100.00;102008.81;5007059;28;20077;-73
2022/05/06 06:12:46;;;;;;;53.85;24.10;;;;;;;10.44;100.00;102008.97;4989447;28;20057;-73
2022/05/06 06:15:12;;;;;;;52.35;25.85;;;;;;;10.38;100.00;102009.53;4990916;28;20038;-73
2022/05/06 06:17:38;;;;;;;52.27;24.03;;;;;;;10.61;100.00;101999.53;4986893;28;20085;-73
2022/05/06 06:20:06;;;;;;;56.30;25.48;;;;;;;10.91;100.00;101996.88;4990511;28;20313;-73
2022/05/06 06:22:38;;;;;;;42.83;21.77;;;;;;;11.34;100.00;102003.75;5005458;28;20033;-75
2022/05/06 06:25:06;;;;;;;44.65;22.00;;;;;;;11.55;100.00;101990.31;5008309;28;20037;-73
2022/05/06 06:27:32;;;;;;;55.42;24.73;;;;;;;11.28;100.00;101982.06;5011560;28;20022;-73
2022/05/06 06:30:03;;;;;;;51.33;23.02;;;;;;;11.01;100.00;101972.88;4986571;28;20542;-73
2022/05/06 06:32:29;;;;;;;53.08;23.67;;;;;;;10.99;100.00;101981.00;5017143;28;20065;-73
2022/05/06 06:34:55;;;;;;;58.13;23.43;;;;;;;10.91;100.00;101980.84;4991383;28;20064;-75
2022/05/06 06:37:21;;;;;;;56.55;26.13;;;;;;;10.52;100.00;101990.50;4998227;28;20041;-73
2022/05/06 06:39:50;;;;;;;51.85;24.00;;;;;;;10.76;100.00;102015.06;5004665;28;20022;-73
2022/05/06 06:42:15;;;;;;;49.33;24.07;;;;;;;10.97;100.00;102009.69;4985143;28;20614;-73
2022/05/06 06:45:01;;;;;;;56.63;25.40;;;;;;;10.50;100.00;101990.63;4997407;28;20030;-73
2022/05/06 06:47:44;;;;;;;49.42;23.15;;;;;;;10.94;100.00;102011.78;4991041;28;20090;-72
2022/05/06 06:50:16;;;;;;;45.67;23.70;;;;;;;10.69;100.00;102002.38;4984662;28;20495;-71
2022/05/06 06:52:55;;;;;;;48.35;22.10;;;;;;;11.31;100.00;102012.06;4992941;28;20122;-71
2022/05/06 06:55:21;;;;;;;44.70;22.13;;;;;;;11.07;100.00;101987.50;5002398;28;20435;-71
2022/05/06 06:57:46;;;;;;;37.90;18.23;;;;;;;11.09;100.00;101978.34;5004764;28;20251;-72
2022/05/06 07:00:12;;;;;;;45.10;21.70;;;;;;;11.30;100.00;101980.13;4997745;28;20387;-72
2022/05/06 07:02:39;;;;;;;39.88;19.88;;;;;;;11.72;100.00;101991.44;4996151;28;20034;-72
2022/05/06 07:05:05;;;;;;;40.90;21.67;;;;;;;11.33;100.00;101969.13;4991967;28;20026;-71
2022/05/06 07:12:58;;;;;;;37.90;19.23;;;;;;;12.98;100.00;101957.41;5001072;28;20472;-72
2022/05/06 07:15:24;;;;;;;38.73;19.17;;;;;;;13.72;100.00;101924.19;4991946;28;20034;-74
2022/05/06 07:17:49;;;;;;;35.30;18.03;;;;;;;14.36;100.00;101887.19;4993128;28;20088;-75
2022/05/06 07:20:15;;;;;;;32.13;17.40;;;;;;;13.79;100.00;101793.72;4997384;28;20089;-72
2022/05/06 07:22:41;;;;;;;36.03;18.27;;;;;;;13.97;100.00;101803.56;4999642;28;20285;-74
2022/05/06 07:25:07;;;;;;;33.03;17.95;;;;;;;13.94;100.00;101816.28;4995571;28;20053;-72
2022/05/06 07:27:34;;;;;;;33.10;17.25;;;;;;;14.02;100.00;101828.09;4992928;28;20395;-72
2022/05/06 07:30:00;;;;;;;28.70;15.25;;;;;;;15.03;100.00;101859.59;4989225;28;20141;-73
2022/05/06 07:32:25;;;;;;;33.63;18.57;;;;;;;14.94;93.34;101738.59;4992719;28;20527;-72
2022/05/06 07:34:50;;;;;;;37.30;17.87;;;;;;;14.93;92.95;101757.56;4992903;28;20109;-72
2022/05/06 07:37:17;;;;;;;28.40;16.63;;;;;;;15.24;90.90;101764.97;4986136;28;20041;-72
2022/05/06 07:39:43;;;;;;;35.38;18.40;;;;;;;14.67;93.16;101773.81;4995965;28;20057;-75
2022/05/06 07:42:10;;;;;;;33.70;17.95;;;;;;;15.37;89.30;101784.16;4992290;28;20499;-74
2022/05/06 07:44:36;;;;;;;24.95;15.50;;;;;;;15.90;85.51;101765.78;4993004;28;20035;-72
2022/05/06 07:47:01;;;;;;;32.67;17.80;;;;;;;15.78;84.14;101724.88;4994877;28;20094;-73
2022/05/06 07:49:27;;;;;;;34.10;19.43;;;;;;;14.97;85.03;101680.94;4999771;28;20433;-75
2022/05/06 07:51:53;;;;;;;29.83;15.63;;;;;;;15.83;87.73;101824.84;4994369;28;20046;-74
2022/05/06 07:54:18;;;;;;;18.88;12.05;;;;;;;16.54;81.29;101757.56;4996796;28;20030;-74
2022/05/06 07:56:44;;;;;;;29.83;16.17;;;;;;;16.73;78.24;101696.97;4990749;28;20040;-73
2022/05/06 07:59:09;;;;;;;24.67;13.43;;;;;;;16.37;78.98;101709.16;4991976;28;20049;-74
2022/05/06 08:04:33;;;;;;;26.85;15.88;;;;;;;16.74;78.76;101757.94;4992340;28;20120;-73
2022/05/06 08:07:00;;;;;;;24.20;13.65;;;;;;;16.42;76.04;101669.03;4970286;28;20034;-73
2022/05/06 08:09:25;;;;;;;21.55;12.40;;;;;;;16.03;72.44;101556.78;5000535;28;20033;-73
2022/05/06 08:11:51;;;;;;;19.33;11.77;;;;;;;15.99;70.81;101531.25;4996185;28;20038;-73
2022/05/06 08:14:18;;;;;;;22.58;13.27;;;;;;;16.04;78.18;101751.59;4992096;28;20106;-73
2022/05/06 08:16:45;;;;;;;24.50;15.35;;;;;;;16.90;73.23;101690.44;4991660;28;20042;-75
2022/05/06 08:19:11;;;;;;;22.83;15.00;;;;;;;17.04;71.47;101651.03;4987185;28;20033;-73
2022/05/06 08:21:36;;;;;;;22.33;12.55;;;;;;;17.38;70.61;101663.19;4990802;28;20050;-73
2022/05/06 08:24:02;;;;;;;20.80;11.03;;;;;;;17.91;68.13;101661.22;4991797;28;20534;-73
2022/05/06 08:26:28;;;;;;;23.90;13.88;;;;;;;17.84;65.41;101554.97;5007130;28;20129;-73
2022/05/06 08:28:53;;;;;;;23.75;14.43;;;;;;;17.63;70.25;101698.84;4990695;28;20121;-74
2022/05/06 08:31:20;;;;;;;24.20;14.27;;;;;;;17.66;68.48;101645.31;4993406;28;20108;-73
2022/05/06 08:33:45;;;;;;;25.60;13.07;;;;;;;17.57;69.04;101645.59;4969115;28;20188;-76
2022/05/06 08:36:10;;;;;;;22.80;14.57;;;;;;;18.21;67.19;101680.09;4992266;28;20506;-75
2022/05/06 08:38:36;;;;;;;23.27;13.50;;;;;;;18.65;66.14;101679.09;4992843;28;20104;-74
2022/05/06 08:41:02;;;;;;;20.75;14.57;;;;;;;19.18;64.04;101679.59;5000880;28;20033;-76
2022/05/06 08:43:27;;;;;;;21.00;11.27;;;;;;;19.56;60.96;101597.97;4992114;28;20494;-76
2022/05/06 08:50:50;;;;;;;19.88;13.15;;;;;;;19.38;59.05;101517.28;4993422;28;20044;-75
2022/05/06 08:51:44;;;;;;;21.02;13.20;;;;;;;19.28;60.09;101587.22;4984010;28;20045;-75
2022/05/06 08:54:11;;;;;;;20.42;12.55;;;;;;;19.70;58.97;101583.47;4984804;28;20519;-75
2022/05/06 08:56:36;;;;;;;19.67;13.05;;;;;;;19.43;59.04;101573.53;4992730;28;20034;-74
2022/05/06 08:59:01;;;;;;;18.67;10.93;;;;;;;19.79;58.52;101606.66;4995651;28;20415;-74
2022/05/06 09:01:27;;;;;;;20.47;12.13;;;;;;;19.93;58.92;101640.06;4994066;28;20100;-76
2022/05/06 09:03:53;;;;;;;18.27;11.53;;;;;;;19.99;57.08;101565.22;4990745;28;20089;-74
2022/05/06 09:06:20;;;;;;;18.75;13.05;;;;;;;20.10;57.40;101580.88;4998003;28;20037;-75
2022/05/06 09:08:47;;;;;;;18.85;12.02;;;;;;;21.10;54.83;101582.81;4993515;28;20026;-76
2022/05/06 09:11:12;;;;;;;18.55;11.88;;;;;;;21.28;54.02;101563.94;4994799;28;20100;-76
2022/05/06 09:13:50;;;;;;;21.33;13.50;;;;;;;20.74;54.22;101508.13;4996311;28;20046;-76
2022/05/06 09:16:44;;;;;;;18.63;13.20;;;;;;;21.41;53.31;101554.97;5007916;28;20137;-75
2022/05/06 09:19:25;;;;;;;26.88;13.75;;;;;;;19.71;55.81;101455.09;4990112;28;20121;-75
2022/05/06 09:22:17;;;;;;;23.30;13.82;;;;;;;19.67;57.75;101551.34;4984687;28;20527;-74
2022/05/06 09:24:47;;;;;;;21.58;13.60;;;;;;;20.18;58.05;101656.63;4987194;28;20046;-74
2022/05/06 09:27:15;;;;;;;22.27;13.90;;;;;;;20.07;55.75;101518.13;5010168;28;20181;-73
2022/05/06 09:29:41;;;;;;;22.30;12.55;;;;;;;20.30;57.11;101620.75;4990479;28;20026;-76
2022/05/06 09:32:24;;;;;;;23.48;13.10;;;;;;;19.88;56.97;101553.13;4992698;28;20049;-74
2022/05/06 09:34:55;;;;;;;25.40;13.15;;;;;;;20.92;54.90;101587.00;4992545;28;20030;-73
2022/05/06 09:37:33;;;;;;;22.88;13.27;;;;;;;21.20;53.12;101548.72;5009832;28;20042;-75
2022/05/06 09:40:09;;;;;;;25.95;13.80;;;;;;;20.82;53.66;101529.63;4983294;28;20334;-76
2022/05/06 09:42:39;;;;;;;18.75;13.48;;;;;;;20.07;53.52;101383.44;4993073;28;20494;-76
2022/05/06 09:45:06;;;;;;;16.08;10.20;;;;;;;20.42;56.53;101624.53;4975514;28;20120;-76
2022/05/06 09:47:34;;;;;;;18.25;11.57;;;;;;;21.33;54.50;101669.22;4997701;28;20129;-76
2022/05/06 09:50:02;;;;;;;23.08;12.45;;;;;;;21.62;52.71;101597.31;4991448;28;20034;-75
2022/05/06 09:52:27;;;;;;;18.23;11.77;;;;;;;21.67;52.68;101600.19;4997676;28;20587;-74
2022/05/06 09:54:53;;;;;;;20.43;13.37;;;;;;;21.49;52.05;101505.81;4992443;28;20056;-73
2022/05/06 09:57:21;;;;;;;16.02;11.63;;;;;;;21.81;52.99;101628.16;4987258;28;20273;-76
2022/05/06 09:59:47;;;;;;;18.60;11.50;;;;;;;22.10;51.67;101594.97;4999331;28;20109;-73
2022/05/06 10:02:13;;;;;;;;;;;;;;;22.04;51.60;101555.06;4990037;28;20027;-75
2022/05/06 10:04:39;;;;;;;16.60;11.73;;;;;;;21.47;51.76;101487.03;4987765;28;20259;-76
2022/05/06 10:07:09;;;;;;;14.27;9.38;;;;;;;21.66;52.44;101547.75;4984406;28;20109;-76
2022/05/06 10:09:44;;;;;;;15.20;9.93;;;;;;;21.67;51.27;101497.78;4991446;28;20034;-76
2022/05/06 10:12:11;;;;;;;12.98;9.95;;;;;;;21.81;53.18;101615.41;4987568;28;20031;-76
2022/05/06 10:14:39;;;;;;;13.63;9.88;;;;;;;22.17;51.47;101581.31;4999496;28;20033;-76
2022/05/06 10:17:05;;;;;;;14.23;10.68;;;;;;;22.39;49.94;101532.03;4986352;28;20132;-75
2022/05/06 10:19:38;;;;;;;14.32;9.77;;;;;;;22.92;49.98;101584.09;4988059;28;20519;-75
2022/05/06 10:22:04;;;;;;;16.47;10.50;;;;;;;21.58;51.13;101422.19;4986396;28;20038;-75
2022/05/06 10:24:40;;;;;;;12.85;9.60;;;;;;;21.21;53.11;101531.41;4988772;28;20031;-76
2022/05/06 10:33:12;;;;;;;13.27;9.90;;;;;;;23.21;48.41;101556.41;4988830;28;20073;-75
2022/05/06 10:35:42;;;;;;;16.73;11.10;;;;;;;22.83;48.58;101486.59;4988317;28;20491;-75
2022/05/06 10:38:24;;;;;;;14.40;11.07;;;;;;;21.38;50.86;101379.66;4985002;28;20096;-75
2022/05/06 10:40:54;;;;;;;13.32;10.48;;;;;;;21.18;52.36;101452.25;4987130;28;20480;-72
2022/05/06 10:43:41;;;;;;;14.48;9.80;;;;;;;21.92;51.42;101533.16;4990625;28;20085;-75
2022/05/06 10:46:07;;;;;;;12.98;10.75;;;;;;;22.42;49.62;101499.75;4990392;28;20034;-75
2022/05/06 10:48:32;;;;;;;;;;;;;;;23.20;48.49;101527.47;4982666;28;20033;-76
2022/05/06 10:51:24;;;;;;;14.88;11.30;;;;;;;22.00;50.14;101438.81;4988810;28;19922;-75
2022/05/06 10:53:51;;;;;;;13.18;9.13;;;;;;;22.73;49.93;101549.72;4982812;28;20034;-76
2022/05/06 10:56:16;;;;;;;12.80;10.02;;;;;;;22.23;49.38;101405.59;4988198;28;20030;-76
2022/05/06 10:58:42;;;;;;;12.40;8.38;;;;;;;23.00;49.33;101534.00;4992027;28;20038;-76
2022/05/06 11:01:32;;;;;;;12.20;8.15;;;;;;;23.58;48.51;101582.56;4990835;28;20034;-77
2022/05/06 11:03:58;;;;;;;12.60;10.15;;;;;;;22.73;46.94;101307.47;4988232;28;20038;-76
2022/05/06 11:06:24;;;;;;;12.57;9.13;;;;;;;23.02;49.33;101536.50;4989423;28;20029;-76
2022/05/06 11:08:50;;;;;;;12.27;9.15;;;;;;;23.34;47.76;101485.38;4989121;28;20050;-73
2022/05/06 11:11:17;;;;;;;16.63;10.27;;;;;;;24.05;46.65;101530.13;4991004;28;20042;-76
2022/05/06 11:13:47;;;;;;;11.52;9.38;;;;;;;23.35;46.49;101365.28;4990581;28;20031;-75
2022/05/06 11:16:14;;;;;;;13.68;10.48;;;;;;;23.88;46.45;101453.63;4994295;28;20030;-75
2022/05/06 11:18:44;;;;;;;17.50;10.68;;;;;;;23.09;47.41;101377.41;4990742;28;20315;-75
2022/05/06 11:21:31;;;;;;;15.25;9.38;;;;;;;23.04;46.81;101338.28;4981167;28;20298;-76
2022/05/06 11:23:56;;;;;;;11.05;8.88;;;;;;;23.31;46.11;101342.28;4991222;28;20034;-75
2022/05/06 11:26:30;;;;;;;15.53;8.63;;;;;;;23.91;46.50;101460.50;4989889;28;20022;-76
2022/05/06 11:29:05;;;;;;;13.68;9.27;;;;;;;23.31;45.40;101278.81;4989900;28;20971;-74
2022/05/06 11:31:31;;;;;;;9.17;7.43;;;;;;;23.63;46.93;101482.94;4989788;28;20037;-74
2022/05/06 11:34:04;;;;;;;11.55;8.48;;;;;;;23.76;45.83;101439.13;5003885;28;20352;-76
2022/05/06 11:36:30;;;;;;;10.77;7.32;;;;;;;23.75;46.27;101454.66;4989036;28;20088;-76
2022/05/06 11:38:55;;;;;;;14.48;8.13;;;;;;;23.67;44.56;101312.38;4989014;28;20026;-74
2022/05/06 11:41:21;;;;;;;13.23;8.30;;;;;;;23.55;46.19;101405.03;4995917;28;20032;-74
2022/05/06 11:43:47;;;;;;;9.45;7.25;;;;;;;23.61;45.88;101387.75;4988953;28;20493;-76
2022/05/06 11:49:00;;;;;;;8.70;6.53;;;;;;;25.57;42.89;101492.06;4985689;28;20042;-74